Tuesday, September 16, 2014
17:35 UTC
  |  Log In   |  Register Free
Airport Search:

Madison Municipal Airport
(KIMS)

Madison Municipal Airport Diagram
No Airport Diagram Available

FAA data valid effective July 24, 2014 until September 18, 2014 (unless otherwise noted).

 
 
 
 
 
 
 
 
 
 
 
 
 
 

Current Aviation Weather for Madison Municipal Airport (KIMS)

METAR data is unavailable for IMS. The nearest METAR location is at KJVY (26.9 nm SW from IMS).

The most recent METAR observation for KJVY was updated at: 1716
METAR Summary (Translated METAR)
KJVY
030145Z 34005KT 10SM CLR 00/M11 A3027 RMK LAST
(26.9 nm SW from KIMS)
KLOU
161653Z 06004KT 10SM FEW022 BKN040 19/13 A3015 RMK AO2 SLP206 T01940133
(33.3 nm SW from KIMS)
TAF
No TAF information found within 50 nm of KLOU
  Airport Weather Conditions for KIMS

Current weather conditions are
not available for IMS


The nearest NOAA weather station
is at LOU, (33.3 nm SW from IMS)
  
 Current Weather at LOU
67° F
Mostly Cloudy
Northeast winds at 4.6 mph
LOU NOAA Radar

Pressure: 30.15 in
Humidity: 68%
Wind: Northeast at 4.6 MPH (4 KT)
Dew Point: 55.9°F
Visibility: 10.00 mi


Airport Weather Forecast for KIMS

Translated METAR and TAF for KLOU
Translated METAR for KLOU (1729 UTC 16 September 2014)
found at http://aviationweather.gov/adds/metars/
 
METAR text: KLOU 161653Z 06004KT 10SM FEW022 BKN040 19/13 A3015 RMK AO2 SLP206 T01940133
Conditions at: KLOU (LOUISVILLE/BOWMN, KY, US) observed 1653 UTC 16 September 2014
Temperature: 19.4°C (67°F)
Dewpoint: 13.3°C (56°F) [RH = 68%]
Pressure (altimeter): 30.15 inches Hg (1021.1 mb)
[Sea-level pressure: 1020.6 mb]
Winds: from the ENE (60 degrees) at 5 MPH (4 knots; 2.1 m/s)
Visibility: 10 or more miles (16+ km)
Ceiling: 4000 feet AGL
Clouds: few clouds at 2200 feet AGL
broken clouds at 4000 feet AGL
Weather: no significant weather observed at this time
Translated TAF for KLOU

There is no translated TAF available for this airport

Find All Airport Services Find A Hotel Find A Rental Car Find A Golf Course Find A Restaurant $100 Hamburger



FBO's on the Field
FBO Company Facility Photos Services Transportation Aviation Fuel Prices: Prices include tax
Catering Weather Repair Courtesy Rental Type 100LL JetA JetA+ MOGAS 8087
 
City of Madison

This FBO has not yet been rated
FS:Phillips66
Last Updated: Sep-05
Login to update fuel prices
SS:
Contact City of MadisonMore FBO Information
 
Add another FBO Facility Photos Catering Weather Repair Courtesy Rental Type 100LL JetA JetA+ MOGAS 8087
Services Transportation Aviation Fuel Prices: Prices include tax


model-print
model-print
model-print
model-print